Time;durP1;ratioP1;P1;durP2;ratioP2;P2;SDS_P1;SDS_P2;PMS_P1;PMS_P2;Temp;Humidity;BMP_temperature;BMP_pressure;BME280_temperature;BME280_humidity;BME280_pressure;Samples;Min_cycle;Max_cycle;Signal;HPM_P1;HPM_P2
2022/07/01 00:00:23;;;;;;;2.95;1.55;;;;;;;17.77;69.64;95940.75;2055998;28;20046;-63
2022/07/01 00:01:24;;;;;;;2.53;1.60;;;;;;;17.70;70.44;95924.63;2048371;28;20551;-63
2022/07/01 00:02:25;;;;;;;2.50;1.30;;;;;;;17.67;70.51;95927.50;2055831;28;20054;-63
2022/07/01 00:03:27;;;;;;;5.00;1.33;;;;;;;17.60;70.36;95932.38;2048967;28;20054;-63
2022/07/01 00:04:28;;;;;;;2.47;1.10;;;;;;;17.56;70.53;95920.44;2041117;28;20047;-60
2022/07/01 00:05:50;;;;;;;2.17;1.10;;;;;;;17.50;70.58;95933.19;2051333;28;20054;-60
2022/07/01 00:06:51;;;;;;;2.22;1.23;;;;;;;17.49;71.70;95931.53;2056410;28;20421;-60
2022/07/01 00:07:52;;;;;;;6.18;1.42;;;;;;;17.42;71.06;95933.75;2055764;28;20505;-58
2022/07/01 00:08:54;;;;;;;1.73;1.05;;;;;;;17.40;71.55;95931.28;2047814;29;20106;-60
2022/07/01 00:09:55;;;;;;;2.60;1.20;;;;;;;17.36;71.90;95935.06;2056540;28;20050;-59
2022/07/01 00:10:56;;;;;;;5.85;1.42;;;;;;;17.39;72.05;95944.50;2063822;28;20050;-60
2022/07/01 00:11:57;;;;;;;1.95;1.30;;;;;;;17.34;71.71;95941.38;2064365;28;20415;-61
2022/07/01 00:12:59;;;;;;;4.32;1.10;;;;;;;17.31;72.27;95941.63;2064240;28;20070;-59
2022/07/01 00:14:00;;;;;;;2.75;1.25;;;;;;;17.26;73.09;95941.94;2064132;28;20045;-63
2022/07/01 00:15:01;;;;;;;3.28;1.50;;;;;;;17.23;72.89;95946.59;2056111;28;20050;-63
2022/07/01 00:16:02;;;;;;;2.75;1.50;;;;;;;17.18;73.15;95960.06;2048103;28;20043;-63
2022/07/01 00:17:04;;;;;;;1.95;1.25;;;;;;;17.24;73.55;95956.13;2048044;28;20051;-65
2022/07/01 00:18:05;;;;;;;2.75;1.35;;;;;;;17.22;73.19;95968.56;2056223;28;20049;-63
2022/07/01 00:19:06;;;;;;;2.47;1.25;;;;;;;17.24;73.03;95971.88;2056208;28;20042;-62
2022/07/01 00:20:08;;;;;;;2.70;1.05;;;;;;;17.20;73.53;95984.41;2048231;28;20047;-63
2022/07/01 00:21:09;;;;;;;1.80;1.30;;;;;;;17.21;73.45;95983.44;2040211;29;20052;-62
2022/07/01 00:22:11;;;;;;;2.13;1.35;;;;;;;17.18;73.65;95978.44;2048589;28;20528;-60
2022/07/01 00:23:13;;;;;;;2.42;1.27;;;;;;;17.12;74.19;95986.75;2048565;29;20058;-61
2022/07/01 00:24:15;;;;;;;2.80;1.40;;;;;;;17.06;74.96;95979.34;2040247;29;20056;-60
2022/07/01 00:25:16;;;;;;;2.65;1.17;;;;;;;17.02;74.55;95976.09;2048616;28;20062;-61
2022/07/01 00:26:17;;;;;;;2.72;1.23;;;;;;;16.98;75.18;95983.34;2056333;28;20042;-61
2022/07/01 00:27:19;;;;;;;2.85;1.40;;;;;;;16.94;75.63;95987.13;2047828;28;20055;-62
2022/07/01 00:28:20;;;;;;;1.98;1.05;;;;;;;16.91;75.61;96003.09;2047583;28;20047;-63
2022/07/01 00:29:21;;;;;;;1.60;1.10;;;;;;;16.86;76.60;96004.38;2055964;28;20048;-63
2022/07/01 00:30:23;;;;;;;2.72;1.30;;;;;;;16.86;76.57;96013.09;2056620;28;20050;-62
2022/07/01 00:31:25;;;;;;;3.58;1.13;;;;;;;16.83;76.56;96007.22;2048257;28;20039;-63
2022/07/01 00:32:26;;;;;;;2.25;1.30;;;;;;;16.83;76.49;96010.69;2041810;28;20517;-60
2022/07/01 00:33:27;;;;;;;3.80;1.48;;;;;;;16.81;76.57;96009.13;2057479;28;20043;-60
2022/07/01 00:34:28;;;;;;;3.22;1.33;;;;;;;16.81;76.42;96012.56;2057686;28;20123;-61
2022/07/01 00:35:30;;;;;;;1.85;1.27;;;;;;;16.76;77.15;96010.28;2042900;28;20066;-61
2022/07/01 00:36:31;;;;;;;1.50;1.02;;;;;;;16.69;77.68;96016.88;2057329;28;20053;-60
2022/07/01 00:37:32;;;;;;;3.35;1.23;;;;;;;16.67;76.96;96002.22;2057719;28;20038;-60
2022/07/01 00:38:33;;;;;;;3.28;1.02;;;;;;;16.64;76.93;96002.44;2057498;28;20049;-60
2022/07/01 00:39:35;;;;;;;2.47;1.25;;;;;;;16.65;77.59;95999.72;2057184;28;20038;-60
2022/07/01 00:40:37;;;;;;;2.75;1.30;;;;;;;16.62;77.49;96002.53;2049856;28;20039;-60
2022/07/01 00:41:38;;;;;;;2.08;1.20;;;;;;;16.63;77.36;96001.59;2057030;28;20061;-59
2022/07/01 00:42:40;;;;;;;2.42;1.10;;;;;;;16.60;77.48;96001.81;2056841;28;20053;-61
2022/07/01 00:43:42;;;;;;;2.83;1.15;;;;;;;16.59;77.80;96001.94;2057413;28;20049;-60
2022/07/01 00:44:43;;;;;;;2.38;0.90;;;;;;;16.61;77.37;96000.88;2049319;28;20051;-60
2022/07/01 00:45:46;;;;;;;1.15;1.05;;;;;;;16.59;77.89;95996.69;2065473;28;20058;-60
2022/07/01 00:46:49;;;;;;;1.83;1.08;;;;;;;16.56;78.04;95989.03;2064996;28;20050;-61
2022/07/01 00:47:50;;;;;;;1.77;1.13;;;;;;;16.56;78.15;95987.25;2057372;28;20046;-59
2022/07/01 00:48:54;;;;;;;3.05;1.00;;;;;;;16.54;77.22;95992.63;2049424;29;20051;-61
2022/07/01 00:49:55;;;;;;;2.70;1.20;;;;;;;16.53;77.72;95985.69;2066039;28;20716;-59
2022/07/01 00:50:57;;;;;;;2.90;1.08;;;;;;;16.54;76.51;95981.28;2049641;29;20066;-60
2022/07/01 00:51:58;;;;;;;1.90;1.05;;;;;;;16.53;77.33;95980.44;2034490;28;20218;-59
2022/07/01 00:52:59;;;;;;;2.40;1.00;;;;;;;16.52;77.32;95973.53;2041326;29;20043;-61
2022/07/01 00:54:01;;;;;;;1.52;0.93;;;;;;;16.57;77.50;95977.59;2049509;28;20469;-60
2022/07/01 00:55:02;;;;;;;3.70;1.33;;;;;;;16.57;77.35;95977.59;2049996;28;20051;-61
2022/07/01 00:56:04;;;;;;;2.20;1.00;;;;;;;16.54;77.59;95976.91;2057574;28;20046;-60
2022/07/01 00:57:09;;;;;;;2.00;1.13;;;;;;;16.55;77.54;95977.72;2057060;28;20050;-61
2022/07/01 00:58:11;;;;;;;1.50;1.00;;;;;;;16.54;76.98;95979.50;2057547;28;20050;-58
2022/07/01 00:59:12;;;;;;;4.07;1.10;;;;;;;16.56;77.70;95981.19;2057995;28;20043;-59
2022/07/01 01:00:17;;;;;;;2.05;1.00;;;;;;;16.54;77.38;95989.13;2057661;28;20069;-58
2022/07/01 01:01:19;;;;;;;1.23;1.00;;;;;;;16.54;76.89;95974.28;2041887;29;20063;-60
2022/07/01 01:02:20;;;;;;;1.90;1.05;;;;;;;16.54;77.29;95981.28;2050308;28;20054;-60
2022/07/01 01:03:21;;;;;;;1.67;0.95;;;;;;;16.36;77.65;95946.75;2065308;28;20046;-60
2022/07/01 01:04:23;;;;;;;1.98;0.98;;;;;;;16.54;77.25;95981.28;2073670;28;20053;-60
2022/07/01 01:05:25;;;;;;;1.70;0.90;;;;;;;16.52;77.79;95972.69;2065213;28;20412;-63
2022/07/01 01:06:26;;;;;;;4.45;1.08;;;;;;;16.50;78.06;95969.34;2057975;28;20043;-62
2022/07/01 01:07:27;;;;;;;2.60;1.00;;;;;;;16.49;78.04;95963.28;2049958;28;20054;-62
2022/07/01 01:08:29;;;;;;;1.35;1.10;;;;;;;16.49;77.88;95967.66;2049423;29;20065;-63
2022/07/01 01:09:30;;;;;;;2.05;1.33;;;;;;;16.48;78.60;95956.34;2042314;28;20047;-62
2022/07/01 01:10:31;;;;;;;2.08;1.10;;;;;;;16.39;79.36;95951.75;2049945;29;20055;-59
2022/07/01 01:11:32;;;;;;;3.08;1.10;;;;;;;16.37;79.33;95947.56;2049672;28;20055;-59
2022/07/01 01:12:34;;;;;;;2.63;1.10;;;;;;;16.31;80.91;95946.22;2050092;28;20043;-59
2022/07/01 01:13:35;;;;;;;1.58;1.00;;;;;;;16.15;82.28;95943.03;2057467;28;20049;-59
2022/07/01 01:14:52;;;;;;;6.78;1.25;;;;;;;16.03;82.19;95940.28;2058218;28;20437;-60
2022/07/01 01:15:53;;;;;;;4.15;1.10;;;;;;;15.93;83.14;95944.53;2065559;28;20058;-59
2022/07/01 01:16:54;;;;;;;1.90;1.20;;;;;;;15.85;83.45;95952.03;2057724;28;20042;-59
2022/07/01 01:17:55;;;;;;;2.35;1.30;;;;;;;15.80;84.23;95944.53;2057840;28;20420;-59
2022/07/01 01:18:57;;;;;;;3.45;1.27;;;;;;;15.74;85.31;95950.16;2041945;28;20052;-60
2022/07/01 01:19:58;;;;;;;3.78;1.70;;;;;;;15.74;84.70;95947.53;2041475;29;20410;-59
2022/07/01 01:20:59;;;;;;;2.15;1.23;;;;;;;15.71;85.71;95958.22;2057406;28;20055;-60
2022/07/01 01:22:00;;;;;;;2.28;1.60;;;;;;;15.67;86.01;95951.50;2065218;28;20181;-60
2022/07/01 01:23:03;;;;;;;2.13;1.40;;;;;;;15.64;86.47;95957.78;2056616;28;20050;-59
2022/07/01 01:24:04;;;;;;;2.50;1.15;;;;;;;15.59;85.60;95944.16;2049334;28;20047;-58
2022/07/01 01:25:06;;;;;;;2.45;1.55;;;;;;;15.59;86.31;95944.16;2041889;29;20048;-58
2022/07/01 01:26:25;;;;;;;1.90;1.35;;;;;;;15.60;86.15;95945.84;2049273;28;20047;-58
2022/07/01 01:27:26;;;;;;;2.00;1.38;;;;;;;15.53;86.53;95943.72;2049769;28;20054;-59
2022/07/01 01:28:27;;;;;;;2.15;1.30;;;;;;;15.49;87.15;95940.50;2049316;28;20035;-58
2022/07/01 01:29:29;;;;;;;2.60;1.33;;;;;;;15.55;87.40;95952.31;2041333;29;20048;-58
2022/07/01 01:30:30;;;;;;;2.90;1.40;;;;;;;15.57;86.15;95955.69;2042339;28;20048;-58
2022/07/01 01:31:33;;;;;;;2.10;1.25;;;;;;;15.56;86.93;95960.09;2057074;28;20051;-59
2022/07/01 01:32:34;;;;;;;4.72;1.38;;;;;;;15.54;87.76;95959.34;2041944;29;20062;-58
2022/07/01 01:33:36;;;;;;;3.40;1.30;;;;;;;15.55;87.74;95963.63;2041624;28;20528;-60
2022/07/01 01:34:38;;;;;;;1.63;1.30;;;;;;;15.55;87.59;95968.03;2049125;28;20054;-60
2022/07/01 01:35:40;;;;;;;2.13;1.33;;;;;;;15.50;88.50;95970.13;2058195;28;20089;-60
2022/07/01 01:36:42;;;;;;;2.97;1.52;;;;;;;15.49;88.00;95971.06;2049775;29;20047;-58
2022/07/01 01:37:43;;;;;;;2.65;1.40;;;;;;;15.46;88.48;95976.50;2034216;29;20048;-59
2022/07/01 01:38:45;;;;;;;3.88;1.60;;;;;;;15.46;89.05;95966.88;2040973;28;20059;-58
2022/07/01 01:39:47;;;;;;;5.20;1.67;;;;;;;15.45;88.59;95962.59;2057695;28;20047;-59
2022/07/01 01:40:49;;;;;;;4.20;2.00;;;;;;;15.47;88.39;95957.25;2065330;28;20046;-60
2022/07/01 01:41:51;;;;;;;3.13;1.27;;;;;;;15.47;87.92;95950.22;2057836;28;20062;-60
2022/07/01 01:42:53;;;;;;;2.58;1.50;;;;;;;15.42;88.67;95957.53;2050001;28;20536;-59
2022/07/01 01:43:54;;;;;;;3.38;1.58;;;;;;;15.43;89.08;95960.06;2048936;28;20051;-60
2022/07/01 01:44:55;;;;;;;4.43;2.00;;;;;;;15.39;88.92;95965.59;2034162;29;20052;-59
2022/07/01 01:45:56;;;;;;;4.25;1.77;;;;;;;15.39;89.42;95962.97;2033812;29;20449;-60
2022/07/01 01:46:57;;;;;;;5.65;1.38;;;;;;;15.36;89.28;95955.34;2049544;28;20062;-60
2022/07/01 01:47:59;;;;;;;2.55;1.52;;;;;;;15.33;89.47;95951.16;2064534;28;20043;-59
2022/07/01 01:49:00;;;;;;;3.60;1.48;;;;;;;15.35;90.04;95953.69;2056899;28;20065;-60
2022/07/01 01:50:01;;;;;;;2.22;1.60;;;;;;;15.34;90.05;95949.38;2050051;28;20051;-60
2022/07/01 01:51:03;;;;;;;2.88;1.60;;;;;;;15.33;90.18;95945.09;2057157;28;20061;-59
2022/07/01 01:52:04;;;;;;;6.35;1.65;;;;;;;15.31;89.92;95936.50;2049528;29;20043;-60
2022/07/01 01:53:05;;;;;;;2.97;1.90;;;;;;;15.28;90.44;95941.94;2041935;29;20048;-59
2022/07/01 01:54:07;;;;;;;1.90;1.60;;;;;;;15.30;89.35;95945.31;2056932;28;20070;-60
2022/07/01 01:55:08;;;;;;;6.38;1.80;;;;;;;15.29;89.70;95938.38;2073022;28;20073;-60
2022/07/01 01:56:10;;;;;;;2.97;1.58;;;;;;;15.26;90.46;95944.66;2064996;28;20441;-59
2022/07/01 01:57:11;;;;;;;2.75;1.45;;;;;;;15.23;90.82;95942.25;2049604;28;20055;-60
2022/07/01 01:58:12;;;;;;;2.95;1.50;;;;;;;15.22;90.53;95946.63;2041271;29;20048;-59
2022/07/01 01:59:13;;;;;;;2.47;1.67;;;;;;;15.25;90.39;95945.59;2041131;28;20055;-59
2022/07/01 02:00:14;;;;;;;4.13;1.58;;;;;;;15.24;90.56;95945.72;2049615;28;20540;-59
2022/07/01 02:01:16;;;;;;;3.35;1.60;;;;;;;15.22;90.68;95948.41;2041049;29;20441;-59
2022/07/01 02:02:18;;;;;;;4.72;2.00;;;;;;;15.22;90.89;95946.63;2048732;28;20054;-58
2022/07/01 02:03:19;;;;;;;4.00;1.85;;;;;;;15.24;90.89;95948.34;2049575;28;20103;-59
2022/07/01 02:04:20;;;;;;;2.90;1.90;;;;;;;15.24;91.27;95958.78;2041421;29;20059;-59
2022/07/01 02:05:21;;;;;;;2.88;1.83;;;;;;;15.24;91.05;95956.19;2049008;28;20047;-60
2022/07/01 02:06:22;;;;;;;2.65;1.63;;;;;;;15.25;90.48;95963.91;2041682;29;20067;-60
2022/07/01 02:07:24;;;;;;;3.03;1.90;;;;;;;15.26;90.92;95964.75;2048875;28;20543;-60
2022/07/01 02:08:25;;;;;;;3.67;1.90;;;;;;;15.26;91.26;95972.59;2048370;28;20047;-60
2022/07/01 02:09:28;;;;;;;3.08;1.67;;;;;;;15.11;90.40;95941.28;2040903;29;20418;-60
2022/07/01 02:10:29;;;;;;;5.57;1.90;;;;;;;15.27;90.50;95975.13;2050181;28;20058;-59
2022/07/01 02:11:30;;;;;;;2.50;1.90;;;;;;;15.30;90.17;95980.13;2056753;28;20472;-58
2022/07/01 02:12:32;;;;;;;3.72;1.70;;;;;;;15.30;90.94;95980.13;2064723;28;20053;-60
2022/07/01 02:13:33;;;;;;;4.28;1.65;;;;;;;15.27;90.26;95980.34;2056731;28;20043;-59
2022/07/01 02:14:34;;;;;;;2.70;1.70;;;;;;;15.31;91.20;95981.81;2056455;28;20047;-59
2022/07/01 02:15:35;;;;;;;3.90;1.70;;;;;;;15.35;90.49;95990.31;2056980;28;20057;-60
2022/07/01 02:16:37;;;;;;;5.13;1.67;;;;;;;15.35;90.17;95985.06;2041171;29;20044;-59
2022/07/01 02:17:38;;;;;;;4.00;1.92;;;;;;;15.33;90.66;95990.41;2043905;29;20127;-60
2022/07/01 02:18:39;;;;;;;3.28;1.73;;;;;;;15.36;90.36;95992.81;2057985;28;20042;-60
2022/07/01 02:19:40;;;;;;;2.67;1.60;;;;;;;15.35;89.93;95983.28;2041224;29;20058;-60
2022/07/01 02:20:42;;;;;;;2.70;1.90;;;;;;;15.39;90.16;95987.38;2033570;29;20050;-60
2022/07/01 02:21:43;;;;;;;6.28;1.77;;;;;;;15.39;89.61;95986.53;2033694;29;20044;-60
2022/07/01 02:22:44;;;;;;;4.05;1.73;;;;;;;15.42;91.18;95988.94;2033908;29;20055;-60
2022/07/01 02:23:45;;;;;;;2.33;1.73;;;;;;;15.45;90.42;95986.16;2034043;29;20055;-60
2022/07/01 02:24:47;;;;;;;4.75;2.20;;;;;;;15.43;90.43;95982.78;2048810;28;20078;-60
2022/07/01 02:25:48;;;;;;;3.17;2.00;;;;;;;15.47;90.20;95980.78;2048878;28;20539;-60
2022/07/01 02:26:49;;;;;;;3.90;1.73;;;;;;;15.46;90.68;95989.59;2048767;28;20047;-60
2022/07/01 02:27:50;;;;;;;4.43;1.77;;;;;;;15.37;90.23;95972.72;2048493;28;20245;-60
2022/07/01 02:28:51;;;;;;;3.53;1.95;;;;;;;15.51;90.04;95997.97;2046661;29;20055;-60
2022/07/01 02:29:53;;;;;;;2.08;1.60;;;;;;;15.50;89.87;95998.91;2056786;28;20058;-60
2022/07/01 02:30:55;;;;;;;4.47;1.75;;;;;;;15.50;89.64;95996.28;2065049;28;20061;-60
2022/07/01 02:31:56;;;;;;;2.83;1.83;;;;;;;15.51;90.42;95998.81;2048518;28;20055;-62
2022/07/01 02:32:57;;;;;;;2.88;1.48;;;;;;;15.53;89.44;95999.56;2056618;28;20047;-60
2022/07/01 02:33:58;;;;;;;3.55;1.90;;;;;;;15.56;88.86;96003.75;2049001;29;20051;-60
2022/07/01 02:35:00;;;;;;;4.30;1.80;;;;;;;15.54;89.11;96014.31;2049163;28;20069;-61
2022/07/01 02:36:01;;;;;;;2.70;1.95;;;;;;;15.53;89.33;96017.00;2056907;28;20065;-60
2022/07/01 02:37:02;;;;;;;2.95;1.90;;;;;;;15.54;89.43;96022.16;2057018;28;20057;-59
2022/07/01 02:38:04;;;;;;;5.10;1.90;;;;;;;15.55;89.84;96029.06;2056667;28;20081;-60
2022/07/01 02:39:05;;;;;;;2.88;1.63;;;;;;;15.56;89.05;96029.94;2048898;28;20453;-60
2022/07/01 02:40:07;;;;;;;3.28;1.77;;;;;;;15.55;88.73;96034.28;2049013;28;20055;-60
2022/07/01 02:41:09;;;;;;;3.67;1.65;;;;;;;15.57;89.14;96042.88;2048624;28;20059;-61
2022/07/01 02:42:26;;;;;;;3.67;1.63;;;;;;;15.57;88.63;96042.06;2041635;28;20063;-60
2022/07/01 02:43:27;;;;;;;3.15;1.80;;;;;;;15.58;89.06;96041.97;2050590;28;20043;-60
2022/07/01 02:44:28;;;;;;;2.85;1.85;;;;;;;15.63;88.49;96047.72;2050388;28;20051;-61
2022/07/01 02:45:30;;;;;;;4.65;2.00;;;;;;;15.61;88.85;96048.75;2048696;29;20472;-60
2022/07/01 02:46:31;;;;;;;2.03;1.70;;;;;;;15.62;88.80;96047.84;2048988;29;20051;-61
2022/07/01 02:47:33;;;;;;;3.40;1.95;;;;;;;15.59;88.45;96048.88;2042016;28;20047;-60
2022/07/01 02:48:34;;;;;;;3.25;1.60;;;;;;;15.63;88.61;96047.72;2048746;28;20039;-60
2022/07/01 02:49:36;;;;;;;3.67;1.60;;;;;;;15.63;88.19;96047.72;2049287;28;20052;-60
2022/07/01 02:50:37;;;;;;;2.75;1.88;;;;;;;15.60;89.74;96050.53;2048717;28;20046;-60
2022/07/01 02:51:38;;;;;;;2.35;1.85;;;;;;;15.60;88.96;96044.47;2056610;28;20630;-60
2022/07/01 02:52:41;;;;;;;5.20;1.80;;;;;;;15.60;88.96;96047.91;2064860;28;20050;-60
2022/07/01 02:53:42;;;;;;;2.60;1.80;;;;;;;15.61;88.85;96040.91;2056390;28;20051;-59
2022/07/01 02:54:44;;;;;;;2.55;2.00;;;;;;;15.59;88.76;96048.03;2048355;28;20054;-58
2022/07/01 02:55:45;;;;;;;5.35;1.90;;;;;;;15.60;88.64;96058.38;2048189;28;20050;-60
2022/07/01 02:56:46;;;;;;;4.55;2.00;;;;;;;15.59;89.73;96051.50;2048330;29;20043;-59
2022/07/01 02:57:51;;;;;;;2.70;1.80;;;;;;;15.60;89.76;96054.94;2056144;28;20054;-60
2022/07/01 02:58:52;;;;;;;2.80;1.60;;;;;;;15.61;89.63;96056.59;2048698;29;20039;-60
2022/07/01 02:59:53;;;;;;;2.17;1.85;;;;;;;15.61;89.25;96052.22;2057076;28;20066;-60
2022/07/01 03:00:55;;;;;;;3.40;1.73;;;;;;;15.61;90.18;96049.63;2064442;28;20336;-60
2022/07/01 03:01:56;;;;;;;3.25;2.00;;;;;;;15.61;90.71;96046.13;2040783;29;20047;-60
2022/07/01 03:02:57;;;;;;;2.92;1.52;;;;;;;15.57;90.15;96052.53;2040802;29;20050;-60
2022/07/01 03:03:58;;;;;;;4.97;2.03;;;;;;;15.55;89.87;96055.22;2048482;28;20080;-60
2022/07/01 03:05:00;;;;;;;3.20;1.70;;;;;;;15.53;89.39;96058.88;2056539;28;20051;-60
2022/07/01 03:06:01;;;;;;;2.38;1.80;;;;;;;15.52;90.63;96049.38;2049348;28;20046;-60
2022/07/01 03:07:02;;;;;;;2.42;1.80;;;;;;;15.52;90.52;96049.38;2048791;29;20047;-59
2022/07/01 03:08:04;;;;;;;2.85;2.10;;;;;;;15.51;90.98;96045.91;2048655;29;20051;-60
2022/07/01 03:09:05;;;;;;;4.03;2.30;;;;;;;15.45;91.32;96051.56;2048684;28;20051;-60
2022/07/01 03:10:07;;;;;;;3.97;2.25;;;;;;;15.42;92.25;96046.50;2057094;28;20131;-60
2022/07/01 03:11:08;;;;;;;3.20;2.10;;;;;;;15.33;91.45;96044.50;2058010;28;20046;-59
2022/07/01 03:12:25;;;;;;;3.10;1.85;;;;;;;15.30;91.39;96050.78;2058359;28;20228;-59
2022/07/01 03:13:26;;;;;;;5.20;2.28;;;;;;;15.29;91.54;96045.63;2057389;28;20049;-59
2022/07/01 03:14:27;;;;;;;4.03;2.15;;;;;;;15.26;91.96;96046.66;2051734;28;20051;-60
2022/07/01 03:15:29;;;;;;;3.83;1.95;;;;;;;15.26;92.15;96046.66;2034555;29;20050;-59
2022/07/01 03:16:30;;;;;;;4.45;2.50;;;;;;;15.26;93.06;96051.91;2042057;28;20048;-59
2022/07/01 03:17:32;;;;;;;3.00;2.50;;;;;;;15.23;92.85;96057.34;2058867;28;20049;-59
2022/07/01 03:18:33;;;;;;;3.97;2.17;;;;;;;15.21;91.80;96051.38;2057878;28;20532;-58
2022/07/01 03:19:35;;;;;;;3.53;2.70;;;;;;;15.22;93.29;96056.50;2057796;28;20050;-58
2022/07/01 03:20:36;;;;;;;4.95;2.17;;;;;;;15.18;93.13;96052.44;2041824;29;20044;-57
2022/07/01 03:21:37;;;;;;;5.57;2.88;;;;;;;15.16;93.56;96049.06;2040935;29;20052;-57
2022/07/01 03:22:38;;;;;;;5.88;2.63;;;;;;;15.15;93.73;96052.59;2041231;29;20056;-58
2022/07/01 03:23:39;;;;;;;3.60;2.35;;;;;;;15.15;93.44;96043.91;2049164;28;20402;-58
2022/07/01 03:24:41;;;;;;;4.30;2.67;;;;;;;15.11;93.30;96038.06;2058061;28;20037;-58
2022/07/01 03:25:42;;;;;;;3.22;2.22;;;;;;;15.13;93.38;96036.19;2040678;29;20043;-58
2022/07/01 03:26:44;;;;;;;3.08;2.20;;;;;;;15.09;92.91;96029.47;2033533;29;20052;-58
2022/07/01 03:27:47;;;;;;;5.25;2.72;;;;;;;15.08;93.06;96040.88;2057150;28;20042;-58
2022/07/01 03:28:49;;;;;;;4.75;2.75;;;;;;;15.09;93.66;96028.63;2062596;28;20057;-59
2022/07/01 03:29:50;;;;;;;3.92;2.80;;;;;;;15.05;94.65;96027.13;2065277;28;20512;-58
2022/07/01 03:30:51;;;;;;;4.00;2.60;;;;;;;15.09;94.25;96028.63;2049028;29;20054;-58
2022/07/01 03:31:52;;;;;;;4.20;3.03;;;;;;;15.07;94.31;96031.34;2041952;28;20055;-58
2022/07/01 03:32:53;;;;;;;3.60;2.53;;;;;;;15.06;94.74;96021.81;2057167;28;20054;-57
2022/07/01 03:33:55;;;;;;;3.80;3.00;;;;;;;15.04;94.68;96033.31;2058118;28;20050;-56
2022/07/01 03:34:56;;;;;;;5.65;3.35;;;;;;;15.04;94.36;96034.16;2056927;28;20042;-58
2022/07/01 03:35:57;;;;;;;4.20;2.97;;;;;;;15.05;93.79;96027.13;2049527;29;20054;-58
2022/07/01 03:36:58;;;;;;;4.03;3.47;;;;;;;15.05;94.49;96025.38;2041565;29;20051;-59
2022/07/01 03:37:59;;;;;;;5.65;3.28;;;;;;;15.05;94.72;96016.69;2049630;28;20063;-58
2022/07/01 03:39:03;;;;;;;6.03;3.60;;;;;;;15.07;94.18;96017.41;2049679;29;20058;-58
2022/07/01 03:40:04;;;;;;;5.60;3.13;;;;;;;15.13;94.44;96015.25;2049816;28;20429;-59
2022/07/01 03:41:06;;;;;;;3.65;2.95;;;;;;;15.08;94.63;96014.72;2049650;29;20047;-59
2022/07/01 03:42:07;;;;;;;5.35;2.80;;;;;;;15.08;94.61;96012.09;2049145;29;20047;-59
2022/07/01 03:43:09;;;;;;;5.35;3.40;;;;;;;15.06;94.86;96007.91;2042128;28;20052;-59
2022/07/01 03:44:10;;;;;;;4.30;3.42;;;;;;;15.06;95.34;96007.91;2041076;29;20047;-58
2022/07/01 03:45:11;;;;;;;6.35;2.70;;;;;;;15.08;95.09;96000.81;2049742;28;20051;-58
2022/07/01 03:46:12;;;;;;;3.97;3.17;;;;;;;15.12;94.79;95997.88;2049495;29;20047;-58
2022/07/01 03:47:14;;;;;;;6.82;3.03;;;;;;;15.11;94.10;95998.00;2041956;29;20418;-58
2022/07/01 03:48:16;;;;;;;4.93;3.00;;;;;;;15.13;94.12;96002.19;2041545;29;20047;-59
2022/07/01 03:49:18;;;;;;;4.05;2.90;;;;;;;15.14;94.11;96006.47;2041316;28;20700;-59
2022/07/01 03:50:21;;;;;;;6.20;3.10;;;;;;;15.16;94.49;96003.75;2049253;28;20675;-59
2022/07/01 03:51:22;;;;;;;7.13;3.38;;;;;;;15.16;93.78;96012.44;2049727;29;20058;-58
2022/07/01 03:52:23;;;;;;;5.78;3.30;;;;;;;15.15;94.74;96015.16;2049437;28;20063;-59
2022/07/01 03:54:44;;;;;;;4.80;3.05;;;;;;;15.14;94.41;96014.31;2057787;28;20444;-59
2022/07/01 03:55:45;;;;;;;4.90;3.60;;;;;;;15.17;95.32;96019.34;2049250;29;20058;-59
2022/07/01 03:56:46;;;;;;;4.00;3.30;;;;;;;15.15;94.84;96021.22;2049533;28;20468;-59
2022/07/01 03:57:48;;;;;;;5.20;3.38;;;;;;;15.18;95.31;96013.19;2057472;28;20076;-59
2022/07/01 03:58:49;;;;;;;5.68;3.38;;;;;;;15.20;95.33;96013.91;2041667;29;20055;-58
2022/07/01 03:59:50;;;;;;;3.75;3.10;;;;;;;15.20;94.78;96010.47;2049509;29;20054;-59
2022/07/01 04:00:51;;;;;;;5.15;2.92;;;;;;;15.26;94.71;96003.97;2049502;29;20047;-59
2022/07/01 04:01:53;;;;;;;5.45;3.22;;;;;;;15.24;94.57;96000.66;2049710;29;20394;-59
2022/07/01 04:02:55;;;;;;;5.82;3.20;;;;;;;15.20;94.32;96006.06;2065662;28;20061;-59
2022/07/01 04:03:56;;;;;;;3.67;3.15;;;;;;;15.18;95.29;96002.72;2050453;29;20054;-59
2022/07/01 04:04:57;;;;;;;5.93;3.80;;;;;;;15.15;95.03;96007.31;2050068;28;20055;-58
2022/07/01 04:05:59;;;;;;;4.38;3.75;;;;;;;15.13;94.86;96007.41;2066103;28;20038;-59
2022/07/01 04:07:01;;;;;;;5.63;3.08;;;;;;;15.15;95.01;96004.69;2051420;28;20058;-59
2022/07/01 04:08:03;;;;;;;4.50;3.05;;;;;;;15.20;95.78;96008.69;2036735;29;20052;-58
2022/07/01 04:09:05;;;;;;;4.28;3.30;;;;;;;15.20;95.55;96010.47;2036598;29;20052;-59
2022/07/01 04:10:07;;;;;;;4.80;3.42;;;;;;;15.13;95.45;96003.94;2051420;28;20058;-60
2022/07/01 04:11:08;;;;;;;7.03;3.35;;;;;;;15.15;95.32;96004.69;2059109;28;20050;-59
2022/07/01 04:12:12;;;;;;;3.92;3.25;;;;;;;15.18;95.72;96002.72;2051290;29;20055;-58
2022/07/01 04:13:13;;;;;;;4.70;2.83;;;;;;;15.17;95.26;95993.19;2043233;29;20043;-59
2022/07/01 04:14:14;;;;;;;4.43;3.15;;;;;;;15.21;95.62;95986.00;2044533;28;20060;-59
2022/07/01 04:15:17;;;;;;;7.07;3.72;;;;;;;15.29;95.66;95988.94;2059758;28;20065;-59
2022/07/01 04:16:19;;;;;;;5.45;3.83;;;;;;;15.26;95.73;95996.97;2051128;29;20070;-59
2022/07/01 04:17:20;;;;;;;4.95;3.80;;;;;;;15.24;95.54;95992.81;2036257;29;20044;-59
2022/07/01 04:18:21;;;;;;;6.22;3.53;;;;;;;15.24;95.82;95995.41;2028891;29;20075;-58
2022/07/01 04:19:23;;;;;;;6.47;3.97;;;;;;;15.25;95.48;95994.47;2028064;29;20052;-59
2022/07/01 04:20:24;;;;;;;6.28;3.50;;;;;;;15.26;95.50;95998.75;2028030;29;20055;-60
2022/07/01 04:22:47;;;;;;;4.55;3.28;;;;;;;15.21;96.03;95980.75;2065376;28;20062;-59
2022/07/01 04:23:48;;;;;;;4.38;3.63;;;;;;;15.17;95.65;95974.88;2060601;28;20051;-58
2022/07/01 04:24:49;;;;;;;5.53;4.07;;;;;;;15.17;95.82;95976.66;2059709;28;20066;-59
2022/07/01 04:25:50;;;;;;;5.03;3.65;;;;;;;15.15;96.28;95979.34;2051668;29;20066;-59
2022/07/01 04:26:51;;;;;;;5.43;3.80;;;;;;;15.15;96.09;95984.59;2052258;28;20223;-59
2022/07/01 04:27:53;;;;;;;5.07;4.00;;;;;;;15.09;95.46;95997.25;2059242;28;20720;-59
2022/07/01 04:28:54;;;;;;;5.80;3.75;;;;;;;15.13;95.75;96007.41;2059254;28;20046;-58
2022/07/01 04:29:55;;;;;;;7.43;3.90;;;;;;;15.15;95.62;96021.22;2051471;28;20529;-59
2022/07/01 04:30:57;;;;;;;6.22;4.18;;;;;;;15.18;96.57;96028.88;2043332;29;20059;-58
2022/07/01 04:31:58;;;;;;;6.53;4.20;;;;;;;15.20;96.77;96045.28;2042971;29;20429;-58
2022/07/01 04:32:59;;;;;;;5.50;4.00;;;;;;;15.18;96.27;96046.34;2043324;29;20055;-60
2022/07/01 04:34:00;;;;;;;5.57;3.80;;;;;;;15.23;96.05;96054.72;2051666;28;20429;-59
2022/07/01 04:35:01;;;;;;;5.35;4.10;;;;;;;15.24;95.60;96061.66;2051561;28;20131;-58
2022/07/01 04:36:02;;;;;;;6.15;3.67;;;;;;;15.29;95.56;96064.81;2059170;28;20046;-58
2022/07/01 04:37:04;;;;;;;4.95;3.75;;;;;;;15.31;95.69;96070.75;2059120;28;20050;-59
2022/07/01 04:38:05;;;;;;;5.00;3.70;;;;;;;15.28;95.52;96080.59;2043606;28;20051;-59
2022/07/01 04:39:07;;;;;;;6.47;3.75;;;;;;;15.25;95.07;96080.78;2043691;29;20044;-59
2022/07/01 04:40:08;;;;;;;4.18;3.10;;;;;;;15.26;95.41;96087.69;2060332;28;20497;-58
2022/07/01 04:42:30;;;;;;;6.18;3.95;;;;;;;15.22;95.69;96085.28;2051776;28;20054;-59
2022/07/01 04:43:32;;;;;;;5.32;3.42;;;;;;;15.25;95.10;96088.66;2059727;28;20051;-59
2022/07/01 04:44:34;;;;;;;5.15;4.07;;;;;;;15.33;96.56;96083.75;2059847;28;20042;-59
2022/07/01 04:45:35;;;;;;;4.68;3.88;;;;;;;15.24;96.05;96086.97;2059682;28;20047;-59
2022/07/01 04:46:37;;;;;;;6.50;3.55;;;;;;;15.24;94.87;96082.56;2050869;29;20050;-57
2022/07/01 04:47:38;;;;;;;9.68;3.90;;;;;;;15.26;95.44;96083.28;2052032;28;20457;-58
2022/07/01 04:48:40;;;;;;;6.25;3.30;;;;;;;15.32;95.29;96087.31;2066398;28;20042;-59
2022/07/01 04:49:41;;;;;;;4.90;3.63;;;;;;;15.40;95.61;96090.28;2066948;28;20053;-58
2022/07/01 04:50:44;;;;;;;7.30;3.72;;;;;;;15.47;94.70;96082.84;2051689;28;20058;-59
2022/07/01 04:51:45;;;;;;;4.38;3.72;;;;;;;15.41;95.08;96089.31;2051518;28;20136;-58
2022/07/01 04:52:46;;;;;;;5.53;3.65;;;;;;;15.39;95.32;96085.97;2059534;28;20404;-59
2022/07/01 04:53:48;;;;;;;5.00;3.90;;;;;;;15.42;95.23;96083.16;2059376;28;20129;-59
2022/07/01 04:54:49;;;;;;;7.25;3.92;;;;;;;15.45;95.71;96085.59;2060103;28;20119;-59